createdAt,value
2018-08-28T00:01:38.323Z,17.20
2018-08-28T00:04:07.394Z,17.20
2018-08-28T00:06:36.323Z,17.30
2018-08-28T00:09:05.610Z,17.30
2018-08-28T00:11:34.564Z,17.40
2018-08-28T00:14:03.502Z,17.40
2018-08-28T00:16:32.398Z,17.50
2018-08-28T00:19:01.299Z,17.50
2018-08-28T00:21:30.158Z,17.60
2018-08-28T00:23:58.944Z,17.60
2018-08-28T00:26:27.859Z,17.60
2018-08-28T00:28:56.681Z,17.70
2018-08-28T00:31:25.815Z,17.70
2018-08-28T00:33:54.804Z,17.80
2018-08-28T00:36:23.725Z,17.80
2018-08-28T00:38:52.672Z,17.80
2018-08-28T00:41:21.677Z,17.80
2018-08-28T00:43:50.733Z,17.80
2018-08-28T00:46:19.579Z,17.80
2018-08-28T00:48:48.541Z,17.90
2018-08-28T00:51:17.395Z,17.90
2018-08-28T00:53:46.243Z,17.90
2018-08-28T00:56:15.175Z,17.90
2018-08-28T00:58:44.038Z,17.90
2018-08-28T01:01:12.905Z,17.90
2018-08-28T01:03:41.816Z,17.90
2018-08-28T01:06:10.755Z,18.00
2018-08-28T01:09:17.939Z,17.90
2018-08-28T01:11:46.512Z,17.90
2018-08-28T01:14:15.125Z,17.90
2018-08-28T01:16:43.693Z,17.90
2018-08-28T01:19:12.288Z,17.90
2018-08-28T01:21:40.842Z,17.90
2018-08-28T01:24:09.478Z,17.90
2018-08-28T01:26:37.971Z,17.80
2018-08-28T01:29:06.583Z,17.80
2018-08-28T01:31:35.285Z,17.80
2018-08-28T01:34:03.862Z,17.80
2018-08-28T01:36:32.419Z,17.80
2018-08-28T01:39:01.462Z,17.70
2018-08-28T01:41:30.459Z,17.80
2018-08-28T01:43:59.645Z,17.80
2018-08-28T01:46:28.470Z,17.80
2018-08-28T01:48:57.263Z,17.70
2018-08-28T01:51:26.113Z,17.70
2018-08-28T01:53:54.907Z,17.70
2018-08-28T01:56:23.745Z,17.70
2018-08-28T01:58:52.745Z,17.80
2018-08-28T02:01:21.579Z,17.70
2018-08-28T02:03:50.453Z,17.80
2018-08-28T02:06:19.422Z,17.80
2018-08-28T02:08:49.016Z,17.70
2018-08-28T02:11:17.991Z,17.70
2018-08-28T02:13:46.829Z,17.70
2018-08-28T02:16:15.620Z,17.70
2018-08-28T02:18:44.519Z,17.70
2018-08-28T02:21:13.587Z,17.70
2018-08-28T02:23:42.431Z,17.70
2018-08-28T02:26:11.279Z,17.70
2018-08-28T02:28:40.639Z,17.70
2018-08-28T02:31:09.871Z,17.70
2018-08-28T02:33:39.004Z,17.80
2018-08-28T02:36:08.381Z,17.70
2018-08-28T02:38:37.489Z,17.70
2018-08-28T02:41:06.405Z,17.70
2018-08-28T02:43:36.191Z,17.70
2018-08-28T02:46:05.045Z,17.70
2018-08-28T02:48:34.151Z,17.70
2018-08-28T02:51:03.003Z,17.70
2018-08-28T02:53:31.771Z,17.70
2018-08-28T02:56:00.784Z,17.70
2018-08-28T02:58:29.622Z,17.70
2018-08-28T03:00:58.531Z,17.70
2018-08-28T03:03:27.477Z,17.70
2018-08-28T03:05:56.337Z,17.60
2018-08-28T03:08:25.381Z,17.60
2018-08-28T03:10:54.161Z,17.60
2018-08-28T03:13:23.028Z,17.50
2018-08-28T03:15:51.978Z,17.50
2018-08-28T03:18:20.924Z,17.50
2018-08-28T03:20:49.933Z,17.50
2018-08-28T03:23:18.819Z,17.40
2018-08-28T03:25:47.826Z,17.50
2018-08-28T03:28:16.681Z,17.50
2018-08-28T03:30:45.651Z,17.50
2018-08-28T03:33:14.508Z,17.50
2018-08-28T03:35:43.334Z,17.60
2018-08-28T03:38:12.123Z,17.60
2018-08-28T03:40:41.029Z,17.60
2018-08-28T03:43:09.983Z,17.60
2018-08-28T03:45:39.006Z,17.60
2018-08-28T03:48:07.998Z,17.50
2018-08-28T03:50:36.991Z,17.50
2018-08-28T03:53:06.475Z,17.40
2018-08-28T03:55:35.485Z,17.40
2018-08-28T03:58:04.447Z,17.30
2018-08-28T04:00:33.335Z,17.30
2018-08-28T04:03:02.556Z,17.20
2018-08-28T04:05:31.510Z,17.20
2018-08-28T04:08:00.335Z,17.10
2018-08-28T04:10:29.240Z,17.00
2018-08-28T04:12:58.284Z,17.00
2018-08-28T04:15:27.254Z,17.00
2018-08-28T04:17:56.096Z,16.90
2018-08-28T04:20:25.456Z,16.80
2018-08-28T04:22:54.426Z,16.70
2018-08-28T04:25:23.330Z,16.70
2018-08-28T04:27:52.698Z,16.60
2018-08-28T04:30:21.553Z,16.60
2018-08-28T04:32:50.290Z,16.60
2018-08-28T04:35:19.094Z,16.60
2018-08-28T04:37:48.440Z,16.60
2018-08-28T04:40:17.389Z,16.60
2018-08-28T04:42:46.264Z,16.60
2018-08-28T04:45:15.783Z,16.60
2018-08-28T04:47:44.514Z,16.70
2018-08-28T04:50:13.381Z,16.70
2018-08-28T04:52:42.312Z,16.80
2018-08-28T04:55:12.319Z,16.80
2018-08-28T04:57:41.095Z,16.80
2018-08-28T05:00:10.001Z,16.80
2018-08-28T05:02:38.907Z,16.90
2018-08-28T05:05:09.697Z,17.00
2018-08-28T05:07:38.589Z,17.00
2018-08-28T05:10:07.787Z,17.00
2018-08-28T05:12:36.746Z,17.10
2018-08-28T05:15:06.082Z,17.10
2018-08-28T05:17:35.053Z,17.20
2018-08-28T05:20:04.019Z,17.30
2018-08-28T05:22:32.949Z,17.30
2018-08-28T05:25:01.825Z,17.30
2018-08-28T05:27:31.155Z,17.30
2018-08-28T05:30:00.159Z,17.40
2018-08-28T05:32:29.113Z,17.50
2018-08-28T05:34:59.072Z,17.50
2018-08-28T05:37:28.031Z,17.80
2018-08-28T05:39:59.088Z,18.40
2018-08-28T05:42:33.655Z,19.20
2018-08-28T05:45:02.486Z,20.10
2018-08-28T05:47:31.337Z,21.10
2018-08-28T05:50:00.122Z,21.80
2018-08-28T05:52:29.457Z,22.40
2018-08-28T05:54:58.387Z,23.20
2018-08-28T05:57:27.214Z,23.60
2018-08-28T05:59:56.877Z,24.00
2018-08-28T06:02:25.747Z,24.30
2018-08-28T06:04:54.843Z,24.60
2018-08-28T06:07:23.683Z,24.50
2018-08-28T06:09:52.539Z,24.60
2018-08-28T06:12:22.006Z,24.50
2018-08-28T06:14:50.940Z,24.30
2018-08-28T06:17:19.822Z,23.90
2018-08-28T06:19:48.692Z,23.60
2018-08-28T06:22:17.501Z,23.10
2018-08-28T06:24:46.506Z,22.80
2018-08-28T06:27:15.669Z,22.70
2018-08-28T06:29:44.484Z,22.30
2018-08-28T06:32:13.278Z,21.90
2018-08-28T06:34:42.217Z,21.60
2018-08-28T06:37:11.070Z,21.30
2018-08-28T06:39:39.900Z,20.90
2018-08-28T06:42:08.761Z,20.70
2018-08-28T06:44:37.790Z,20.50
2018-08-28T06:47:06.772Z,20.40
2018-08-28T06:49:35.782Z,20.70
2018-08-28T06:52:04.576Z,21.10
2018-08-28T06:54:33.494Z,21.20
2018-08-28T06:57:02.653Z,21.10
2018-08-28T06:59:31.432Z,21.20
2018-08-28T07:02:00.433Z,21.40
2018-08-28T07:04:29.303Z,21.20
2018-08-28T07:06:58.489Z,21.20
2018-08-28T07:09:27.462Z,21.20
2018-08-28T07:11:56.550Z,21.40
2018-08-28T07:14:25.373Z,21.70
2018-08-28T07:16:54.319Z,21.80
2018-08-28T07:19:23.437Z,22.00
2018-08-28T07:21:52.719Z,22.30
2018-08-28T07:24:21.650Z,22.70
2018-08-28T07:26:50.733Z,23.10
2018-08-28T07:29:20.118Z,23.30
2018-08-28T07:31:49.715Z,22.90
2018-08-28T07:34:18.451Z,22.70
2018-08-28T07:36:47.308Z,22.80
2018-08-28T07:39:16.330Z,23.10
2018-08-28T07:41:45.384Z,23.20
2018-08-28T07:44:14.319Z,23.30
2018-08-28T07:46:43.374Z,23.70
2018-08-28T07:49:12.248Z,23.80
2018-08-28T07:51:41.108Z,23.70
2018-08-28T07:54:10.020Z,23.70
2018-08-28T07:56:38.862Z,23.30
2018-08-28T07:59:07.772Z,22.50
2018-08-28T08:01:36.658Z,22.20
2018-08-28T08:04:06.314Z,21.90
2018-08-28T08:06:35.156Z,21.50
2018-08-28T08:09:04.312Z,21.40
2018-08-28T08:11:33.620Z,21.40
2018-08-28T08:14:02.493Z,21.30
2018-08-28T08:16:31.300Z,21.60
2018-08-28T08:19:00.129Z,22.10
2018-08-28T08:21:28.967Z,22.50
2018-08-28T08:23:57.830Z,23.00
2018-08-28T08:26:27.042Z,23.50
2018-08-28T08:28:55.836Z,23.90
2018-08-28T08:31:24.786Z,23.90
2018-08-28T08:33:53.629Z,23.70
2018-08-28T08:36:22.701Z,23.50
2018-08-28T08:38:51.520Z,23.50
2018-08-28T08:41:20.273Z,23.30
2018-08-28T08:43:49.486Z,23.50
2018-08-28T08:46:18.735Z,23.70
2018-08-28T08:48:47.647Z,23.80
2018-08-28T08:51:16.671Z,24.10
2018-08-28T08:53:45.612Z,24.40
2018-08-28T08:56:17.804Z,24.30
2018-08-28T08:58:46.702Z,24.30
2018-08-28T09:01:15.563Z,24.20
2018-08-28T09:03:44.316Z,23.80
2018-08-28T09:06:13.362Z,23.70
2018-08-28T09:08:42.358Z,23.70
2018-08-28T09:11:11.300Z,23.80
2018-08-28T09:13:40.276Z,24.00
2018-08-28T09:16:09.296Z,24.20
2018-08-28T09:18:38.267Z,23.80
2018-08-28T09:21:07.144Z,23.60
2018-08-28T09:23:36.172Z,23.70
2018-08-28T09:26:05.483Z,23.90
2018-08-28T09:28:34.477Z,23.70
2018-08-28T09:31:03.344Z,23.50
2018-08-28T09:33:32.144Z,23.10
2018-08-28T09:36:01.026Z,23.00
2018-08-28T09:38:30.324Z,23.10
2018-08-28T09:40:59.190Z,23.30
2018-08-28T09:43:28.065Z,23.30
2018-08-28T09:45:56.884Z,23.30
2018-08-28T09:48:25.795Z,23.40
2018-08-28T09:50:54.665Z,23.60
2018-08-28T09:53:23.586Z,23.80
2018-08-28T09:55:52.330Z,24.10
2018-08-28T09:58:21.188Z,24.10
2018-08-28T10:00:55.333Z,24.20
2018-08-28T10:03:24.462Z,23.90
2018-08-28T10:05:53.455Z,24.10
2018-08-28T10:08:22.375Z,24.30
2018-08-28T10:10:51.334Z,24.40
2018-08-28T10:13:20.145Z,24.40
2018-08-28T10:15:49.117Z,24.10
2018-08-28T10:18:17.891Z,24.10
2018-08-28T10:20:46.721Z,24.40
2018-08-28T10:23:15.725Z,24.60
2018-08-28T10:25:44.611Z,24.60
2018-08-28T10:28:13.510Z,24.20
2018-08-28T10:30:42.308Z,23.80
2018-08-28T10:33:11.157Z,23.60
2018-08-28T10:35:40.189Z,23.60
2018-08-28T10:38:09.126Z,23.50
2018-08-28T10:40:38.058Z,23.50
2018-08-28T10:43:07.025Z,23.60
2018-08-28T10:45:36.127Z,23.70
2018-08-28T10:48:05.379Z,23.90
2018-08-28T10:50:34.495Z,23.90
2018-08-28T10:53:03.488Z,23.90
2018-08-28T10:55:32.365Z,23.80
2018-08-28T10:58:01.252Z,23.90
2018-08-28T11:00:30.201Z,23.90
2018-08-28T11:02:59.132Z,23.70
2018-08-28T11:05:28.063Z,23.70
2018-08-28T11:07:57.020Z,24.00
2018-08-28T11:10:25.950Z,24.10
2018-08-28T11:12:54.783Z,24.40
2018-08-28T11:15:23.561Z,24.60
2018-08-28T11:17:52.366Z,24.80
2018-08-28T11:20:21.317Z,25.00
2018-08-28T11:22:50.500Z,25.10
2018-08-28T11:25:19.390Z,25.50
2018-08-28T11:27:48.211Z,25.60
2018-08-28T11:30:17.151Z,25.90
2018-08-28T11:32:46.067Z,26.10
2018-08-28T11:35:14.942Z,25.80
2018-08-28T11:37:43.841Z,25.50
2018-08-28T11:40:12.801Z,25.20
2018-08-28T11:42:41.709Z,25.00
2018-08-28T11:45:10.617Z,24.90
2018-08-28T11:47:39.451Z,25.30
2018-08-28T11:50:09.025Z,25.20
2018-08-28T11:52:38.209Z,25.20
2018-08-28T11:55:07.389Z,25.30
2018-08-28T11:57:36.262Z,25.10
2018-08-28T12:00:05.277Z,24.80
2018-08-28T12:02:34.577Z,24.60
2018-08-28T12:05:03.545Z,24.50
2018-08-28T12:07:32.434Z,24.60
2018-08-28T12:10:01.183Z,24.70
2018-08-28T12:12:30.063Z,25.10
2018-08-28T12:14:59.002Z,25.10
2018-08-28T12:17:27.925Z,25.20
2018-08-28T12:19:56.853Z,25.50
2018-08-28T12:22:25.723Z,25.90
2018-08-28T12:24:54.606Z,26.30
2018-08-28T12:27:23.611Z,27.70
2018-08-28T12:29:52.710Z,28.80
2018-08-28T12:32:21.586Z,29.10
2018-08-28T12:34:50.476Z,29.40
2018-08-28T12:37:19.295Z,30.00
2018-08-28T12:39:48.170Z,30.90
2018-08-28T12:42:17.228Z,31.70
2018-08-28T12:44:47.493Z,33.00
2018-08-28T12:47:16.365Z,31.80
2018-08-28T12:49:45.240Z,32.20
2018-08-28T12:52:14.072Z,31.60
2018-08-28T12:54:43.066Z,31.60
2018-08-28T12:57:11.823Z,32.50
2018-08-28T12:59:40.715Z,32.80
2018-08-28T13:02:09.652Z,32.80
2018-08-28T13:04:38.443Z,33.60
2018-08-28T13:07:07.747Z,33.40
2018-08-28T13:09:36.631Z,32.60
2018-08-28T13:12:05.560Z,32.20
2018-08-28T13:14:34.517Z,32.30
2018-08-28T13:17:03.633Z,32.00
2018-08-28T13:19:32.579Z,31.90
2018-08-28T13:22:01.453Z,33.20
2018-08-28T13:24:30.285Z,34.40
2018-08-28T13:26:59.367Z,35.10
2018-08-28T13:29:28.239Z,35.80
2018-08-28T13:31:57.393Z,35.20
2018-08-28T13:34:26.541Z,33.90
2018-08-28T13:36:55.348Z,32.40
2018-08-28T13:39:24.140Z,31.40
2018-08-28T13:41:52.995Z,30.50
2018-08-28T13:44:21.988Z,30.50
2018-08-28T13:46:50.814Z,30.10
2018-08-28T13:49:19.539Z,30.00
2018-08-28T13:51:48.339Z,30.30
2018-08-28T13:54:17.704Z,30.80
2018-08-28T13:56:46.361Z,31.00
2018-08-28T13:59:15.192Z,30.90
2018-08-28T14:01:44.049Z,31.20
2018-08-28T14:04:12.913Z,31.50
2018-08-28T14:06:41.838Z,31.80
2018-08-28T14:09:11.513Z,32.10
2018-08-28T14:11:40.453Z,31.90
2018-08-28T14:14:09.292Z,30.70
2018-08-28T14:16:39.007Z,30.00
2018-08-28T14:19:07.960Z,29.70
2018-08-28T14:21:37.045Z,29.60
2018-08-28T14:24:06.565Z,29.00
2018-08-28T14:26:35.385Z,28.80
2018-08-28T14:29:04.348Z,29.40
2018-08-28T14:31:33.176Z,29.50
2018-08-28T14:34:01.977Z,29.60
2018-08-28T14:36:30.782Z,29.70
2018-08-28T14:38:59.580Z,30.10
2018-08-28T14:41:28.530Z,30.80
2018-08-28T14:43:57.464Z,31.20
2018-08-28T14:46:27.082Z,31.30
2018-08-28T14:48:56.215Z,31.60
2018-08-28T14:51:25.130Z,31.70
2018-08-28T14:53:53.961Z,31.10
2018-08-28T14:56:22.711Z,30.70
2018-08-28T14:58:51.605Z,31.20
2018-08-28T15:01:20.492Z,31.90
2018-08-28T15:03:49.398Z,32.00
2018-08-28T15:06:19.036Z,31.90
2018-08-28T15:08:47.970Z,32.40
2018-08-28T15:11:17.030Z,32.30
2018-08-28T15:13:45.882Z,31.30
2018-08-28T15:16:14.664Z,30.30
2018-08-28T15:18:43.569Z,30.40
2018-08-28T15:21:12.335Z,30.50
2018-08-28T15:23:41.279Z,30.10
2018-08-28T15:26:10.634Z,30.20
2018-08-28T15:28:51.314Z,30.10
2018-08-28T15:31:20.680Z,29.90
2018-08-28T15:33:50.131Z,29.50
2018-08-28T15:36:18.973Z,29.30
2018-08-28T15:38:48.155Z,29.20
2018-08-28T15:41:17.116Z,29.40
2018-08-28T15:43:46.147Z,29.80
2018-08-28T15:46:14.976Z,30.20
2018-08-28T15:48:43.825Z,30.10
2018-08-28T15:51:12.769Z,29.70
2018-08-28T15:53:42.016Z,29.50
2018-08-28T15:56:10.922Z,29.70
2018-08-28T15:58:40.024Z,29.70
2018-08-28T16:01:09.128Z,30.00
2018-08-28T16:03:37.978Z,29.70
2018-08-28T16:06:06.802Z,29.00
2018-08-28T16:08:35.996Z,28.90
2018-08-28T16:11:04.726Z,28.90
2018-08-28T16:13:33.537Z,28.90
2018-08-28T16:16:02.685Z,28.70
2018-08-28T16:18:31.570Z,28.60
2018-08-28T16:21:00.355Z,28.50
2018-08-28T16:23:34.047Z,28.50
2018-08-28T16:26:02.870Z,28.30
2018-08-28T16:28:31.805Z,28.00
2018-08-28T16:31:00.738Z,28.00
2018-08-28T16:33:29.617Z,28.10
2018-08-28T16:35:58.682Z,27.90
2018-08-28T16:38:27.438Z,27.50
2018-08-28T16:40:56.329Z,27.20
2018-08-28T16:43:25.173Z,27.10
2018-08-28T16:45:54.050Z,27.00
2018-08-28T16:48:22.950Z,26.90
2018-08-28T16:50:51.766Z,26.80
2018-08-28T16:53:20.571Z,26.70
2018-08-28T16:55:50.710Z,26.60
2018-08-28T16:58:19.755Z,26.50
2018-08-28T17:00:48.744Z,26.40
2018-08-28T17:03:18.531Z,26.30
2018-08-28T17:05:47.903Z,26.20
2018-08-28T17:08:16.994Z,26.00
2018-08-28T17:10:45.833Z,25.70
2018-08-28T17:13:14.826Z,25.50
2018-08-28T17:15:43.665Z,25.40
2018-08-28T17:18:12.704Z,25.30
2018-08-28T17:20:41.764Z,25.20
2018-08-28T17:23:10.611Z,25.10
2018-08-28T17:25:39.501Z,25.00
2018-08-28T17:28:08.296Z,24.90
2018-08-28T17:30:37.202Z,24.80
2018-08-28T17:33:06.456Z,24.70
2018-08-28T17:35:35.350Z,24.60
2018-08-28T17:38:04.241Z,24.50
2018-08-28T17:40:33.128Z,24.40
2018-08-28T17:43:02.099Z,24.30
2018-08-28T17:45:31.058Z,24.20
2018-08-28T17:48:00.283Z,24.10
2018-08-28T17:50:29.198Z,24.00
2018-08-28T17:52:58.350Z,23.90
2018-08-28T18:00:21.129Z,23.70
2018-08-28T18:02:49.628Z,23.50
2018-08-28T18:05:18.369Z,23.40
2018-08-28T18:07:46.939Z,23.30
2018-08-28T18:10:15.971Z,23.20
2018-08-28T18:12:44.543Z,23.20
2018-08-28T18:15:13.102Z,23.00
2018-08-28T18:17:41.818Z,23.00
2018-08-28T18:20:10.598Z,22.90
2018-08-28T18:22:39.233Z,22.90
2018-08-28T18:25:07.730Z,22.80
2018-08-28T18:27:36.509Z,22.70
2018-08-28T18:30:05.137Z,22.60
2018-08-28T18:32:34.185Z,22.50
2018-08-28T18:35:02.925Z,22.50
2018-08-28T18:37:31.715Z,22.30
2018-08-28T18:40:00.287Z,22.30
2018-08-28T18:42:29.229Z,22.20
2018-08-28T18:44:57.972Z,22.10
2018-08-28T18:47:26.550Z,22.00
2018-08-28T18:49:55.140Z,21.90
2018-08-28T18:52:23.701Z,21.80
2018-08-28T18:54:52.253Z,21.80
2018-08-28T18:57:20.749Z,21.70
2018-08-28T18:59:49.374Z,21.70
2018-08-28T19:02:17.917Z,21.60
2018-08-28T19:04:46.400Z,21.50
2018-08-28T19:07:14.919Z,21.50
2018-08-28T19:09:43.445Z,21.40
2018-08-28T19:12:11.987Z,21.30
2018-08-28T19:14:40.611Z,21.20
2018-08-28T19:17:09.048Z,21.10
2018-08-28T19:19:37.571Z,21.00
2018-08-28T19:22:06.045Z,20.90
2018-08-28T19:24:34.553Z,20.80
2018-08-28T19:27:03.129Z,20.60
2018-08-28T19:29:31.659Z,20.50
2018-08-28T19:32:00.250Z,20.40
2018-08-28T19:34:28.889Z,20.30
2018-08-28T19:36:57.357Z,20.20
2018-08-28T19:39:25.961Z,20.10
2018-08-28T19:41:54.514Z,20.10
2018-08-28T19:44:23.127Z,20.00
2018-08-28T19:46:51.866Z,19.90
2018-08-28T19:49:20.612Z,19.80
2018-08-28T19:51:49.623Z,19.70
2018-08-28T19:54:18.116Z,19.60
2018-08-28T19:56:46.766Z,19.60
2018-08-28T19:59:15.187Z,19.50
2018-08-28T20:01:43.962Z,19.40
2018-08-28T20:04:12.484Z,19.30
2018-08-28T20:06:40.947Z,19.20
2018-08-28T20:09:09.472Z,19.10
2018-08-28T20:11:37.997Z,19.10
2018-08-28T20:14:06.740Z,19.00
2018-08-28T20:16:35.329Z,19.00
2018-08-28T20:19:03.832Z,18.90
2018-08-28T20:21:32.319Z,18.90
2018-08-28T20:24:00.869Z,18.80
2018-08-28T20:26:29.724Z,18.70
2018-08-28T20:28:58.523Z,18.70
2018-08-28T20:31:27.443Z,18.60
2018-08-28T20:33:56.332Z,18.50
2018-08-28T20:36:25.262Z,18.50
2018-08-28T20:38:54.206Z,18.40
2018-08-28T20:41:23.309Z,18.40
2018-08-28T20:43:52.186Z,18.30
2018-08-28T20:46:21.119Z,18.30
2018-08-28T20:48:50.048Z,18.20
2018-08-28T20:51:18.981Z,18.20
2018-08-28T20:53:47.840Z,18.10
2018-08-28T20:56:16.855Z,18.00
2018-08-28T20:58:45.711Z,17.90
2018-08-28T21:01:14.502Z,17.90
2018-08-28T21:03:43.433Z,17.80
2018-08-28T21:06:12.355Z,17.80
2018-08-28T21:08:41.328Z,17.70
2018-08-28T21:11:10.231Z,17.70
2018-08-28T21:13:39.154Z,17.60
2018-08-28T21:16:08.059Z,17.50
2018-08-28T21:18:36.902Z,17.50
2018-08-28T21:21:06.011Z,17.40
2018-08-28T21:23:34.918Z,17.30
2018-08-28T21:26:03.801Z,17.20
2018-08-28T21:29:12.732Z,17.10
2018-08-28T21:31:41.635Z,17.10
2018-08-28T21:34:10.631Z,17.10
2018-08-28T21:36:39.517Z,17.00
2018-08-28T21:39:08.345Z,17.00
2018-08-28T21:41:37.293Z,16.90
2018-08-28T21:44:11.647Z,16.90
2018-08-28T21:46:40.760Z,16.80
2018-08-28T21:49:09.611Z,16.80
2018-08-28T21:51:38.767Z,16.70
2018-08-28T21:54:07.875Z,16.70
2018-08-28T21:56:36.831Z,16.60
2018-08-28T21:59:05.778Z,16.60
2018-08-28T22:01:34.833Z,16.60
2018-08-28T22:04:03.905Z,16.50
2018-08-28T22:06:37.939Z,16.40
2018-08-28T22:09:07.253Z,16.40
2018-08-28T22:11:36.629Z,16.40
2018-08-28T22:14:05.767Z,16.30
2018-08-28T22:16:34.616Z,16.30
2018-08-28T22:19:03.582Z,16.30
2018-08-28T22:21:32.612Z,16.30
2018-08-28T22:24:09.739Z,16.30
2018-08-28T22:26:38.557Z,16.10
2018-08-28T22:29:07.410Z,16.10
2018-08-28T22:31:36.365Z,16.10
2018-08-28T22:34:05.341Z,16.10
2018-08-28T22:36:34.935Z,16.10
2018-08-28T22:39:04.324Z,16.10
2018-08-28T22:41:33.340Z,16.10
2018-08-28T22:44:02.635Z,16.10
2018-08-28T22:46:31.465Z,16.00
2018-08-28T22:49:00.382Z,16.00
2018-08-28T22:51:29.366Z,16.00
2018-08-28T22:53:58.350Z,15.90
2018-08-28T22:56:27.551Z,15.90
2018-08-28T22:58:56.348Z,15.80
2018-08-28T23:01:25.162Z,15.70
2018-08-28T23:03:54.158Z,15.70
2018-08-28T23:06:22.976Z,15.70
2018-08-28T23:08:52.504Z,15.70
2018-08-28T23:11:21.389Z,15.70
2018-08-28T23:13:50.331Z,15.50
2018-08-28T23:16:19.263Z,15.50
2018-08-28T23:18:48.592Z,15.50
2018-08-28T23:21:17.575Z,15.40
2018-08-28T23:23:46.357Z,15.30
2018-08-28T23:26:15.211Z,15.30
2018-08-28T23:28:44.142Z,15.20
2018-08-28T23:31:13.017Z,15.20
2018-08-28T23:33:42.023Z,15.10
2018-08-28T23:36:10.860Z,15.10
2018-08-28T23:38:39.687Z,15.10
2018-08-28T23:41:08.518Z,15.00
2018-08-28T23:43:37.722Z,15.00
2018-08-28T23:46:06.637Z,14.90
2018-08-28T23:48:35.543Z,14.90
2018-08-28T23:51:04.464Z,14.90
2018-08-28T23:53:33.558Z,14.80
2018-08-28T23:56:02.565Z,14.80
2018-08-28T23:58:31.329Z,14.80
